sensor_id;sensor_type;location;lat;lon;timestamp;P1;durP1;ratioP1;P2;durP2;ratioP2
10947;SDS011;5526;42.070;24.752;2023-09-12T00:00:47;1.10;;;0.98;;
10947;SDS011;5526;42.070;24.752;2023-09-12T00:03:14;1.13;;;1.00;;
10947;SDS011;5526;42.070;24.752;2023-09-12T00:05:41;1.75;;;0.70;;
10947;SDS011;5526;42.070;24.752;2023-09-12T00:08:10;1.30;;;1.20;;
10947;SDS011;5526;42.070;24.752;2023-09-12T00:10:37;2.05;;;1.50;;
10947;SDS011;5526;42.070;24.752;2023-09-12T00:13:04;3.65;;;1.55;;
10947;SDS011;5526;42.070;24.752;2023-09-12T00:15:31;1.40;;;1.30;;
10947;SDS011;5526;42.070;24.752;2023-09-12T00:17:58;3.58;;;1.38;;
10947;SDS011;5526;42.070;24.752;2023-09-12T00:20:25;1.55;;;1.10;;
10947;SDS011;5526;42.070;24.752;2023-09-12T00:22:52;1.75;;;0.93;;
10947;SDS011;5526;42.070;24.752;2023-09-12T00:25:21;2.25;;;0.90;;
10947;SDS011;5526;42.070;24.752;2023-09-12T00:27:48;3.58;;;0.90;;
10947;SDS011;5526;42.070;24.752;2023-09-12T00:30:15;3.40;;;1.00;;
10947;SDS011;5526;42.070;24.752;2023-09-12T00:32:42;0.85;;;0.80;;
10947;SDS011;5526;42.070;24.752;2023-09-12T00:35:09;2.33;;;1.17;;
10947;SDS011;5526;42.070;24.752;2023-09-12T00:37:36;2.00;;;1.00;;
10947;SDS011;5526;42.070;24.752;2023-09-12T00:40:04;1.13;;;0.98;;
10947;SDS011;5526;42.070;24.752;2023-09-12T00:42:33;1.38;;;1.10;;
10947;SDS011;5526;42.070;24.752;2023-09-12T00:45:00;1.50;;;1.08;;
10947;SDS011;5526;42.070;24.752;2023-09-12T00:47:27;1.52;;;0.88;;
10947;SDS011;5526;42.070;24.752;2023-09-12T00:49:55;1.00;;;1.00;;
10947;SDS011;5526;42.070;24.752;2023-09-12T00:52:24;0.93;;;0.93;;
10947;SDS011;5526;42.070;24.752;2023-09-12T00:54:52;1.77;;;1.00;;
10947;SDS011;5526;42.070;24.752;2023-09-12T00:57:20;3.63;;;1.02;;
10947;SDS011;5526;42.070;24.752;2023-09-12T00:59:49;0.90;;;0.90;;
10947;SDS011;5526;42.070;24.752;2023-09-12T01:02:17;1.40;;;1.02;;
10947;SDS011;5526;42.070;24.752;2023-09-12T01:04:45;2.10;;;1.50;;
10947;SDS011;5526;42.070;24.752;2023-09-12T01:07:13;2.95;;;1.55;;
10947;SDS011;5526;42.070;24.752;2023-09-12T01:09:41;2.65;;;1.48;;
10947;SDS011;5526;42.070;24.752;2023-09-12T01:12:08;2.40;;;1.70;;
10947;SDS011;5526;42.070;24.752;2023-09-12T01:14:39;1.98;;;1.67;;
10947;SDS011;5526;42.070;24.752;2023-09-12T01:17:08;2.92;;;1.50;;
10947;SDS011;5526;42.070;24.752;2023-09-12T01:19:35;3.72;;;1.65;;
10947;SDS011;5526;42.070;24.752;2023-09-12T01:22:10;2.65;;;1.55;;
10947;SDS011;5526;42.070;24.752;2023-09-12T01:25:00;1.63;;;1.30;;
10947;SDS011;5526;42.070;24.752;2023-09-12T01:27:40;1.80;;;1.67;;
10947;SDS011;5526;42.070;24.752;2023-09-12T01:30:08;2.95;;;1.40;;
10947;SDS011;5526;42.070;24.752;2023-09-12T01:32:37;2.10;;;1.02;;
10947;SDS011;5526;42.070;24.752;2023-09-12T01:35:05;2.28;;;1.17;;
10947;SDS011;5526;42.070;24.752;2023-09-12T01:37:33;1.30;;;1.20;;
10947;SDS011;5526;42.070;24.752;2023-09-12T01:40:00;1.25;;;1.15;;
10947;SDS011;5526;42.070;24.752;2023-09-12T01:42:30;2.78;;;1.10;;
10947;SDS011;5526;42.070;24.752;2023-09-12T01:45:03;2.13;;;1.05;;
10947;SDS011;5526;42.070;24.752;2023-09-12T01:47:32;1.35;;;1.13;;
10947;SDS011;5526;42.070;24.752;2023-09-12T01:50:01;1.38;;;1.17;;
10947;SDS011;5526;42.070;24.752;2023-09-12T01:52:29;1.33;;;1.15;;
10947;SDS011;5526;42.070;24.752;2023-09-12T01:54:57;3.08;;;1.35;;
10947;SDS011;5526;42.070;24.752;2023-09-12T01:57:25;1.55;;;1.30;;
10947;SDS011;5526;42.070;24.752;2023-09-12T01:59:52;1.95;;;1.40;;
10947;SDS011;5526;42.070;24.752;2023-09-12T02:02:21;1.95;;;1.40;;
10947;SDS011;5526;42.070;24.752;2023-09-12T02:04:51;1.50;;;1.30;;
10947;SDS011;5526;42.070;24.752;2023-09-12T02:07:25;1.52;;;1.42;;
10947;SDS011;5526;42.070;24.752;2023-09-12T02:09:53;1.50;;;1.33;;
10947;SDS011;5526;42.070;24.752;2023-09-12T02:12:20;1.77;;;1.50;;
10947;SDS011;5526;42.070;24.752;2023-09-12T02:14:47;1.33;;;1.10;;
10947;SDS011;5526;42.070;24.752;2023-09-12T02:17:14;1.88;;;1.23;;
10947;SDS011;5526;42.070;24.752;2023-09-12T02:19:42;1.83;;;1.25;;
10947;SDS011;5526;42.070;24.752;2023-09-12T02:22:13;1.70;;;1.30;;
10947;SDS011;5526;42.070;24.752;2023-09-12T02:24:40;2.63;;;1.17;;
10947;SDS011;5526;42.070;24.752;2023-09-12T02:27:07;3.78;;;1.30;;
10947;SDS011;5526;42.070;24.752;2023-09-12T02:29:34;2.55;;;1.13;;
10947;SDS011;5526;42.070;24.752;2023-09-12T02:32:01;1.52;;;1.42;;
10947;SDS011;5526;42.070;24.752;2023-09-12T02:34:28;3.45;;;1.27;;
10947;SDS011;5526;42.070;24.752;2023-09-12T02:36:57;2.25;;;1.15;;
10947;SDS011;5526;42.070;24.752;2023-09-12T02:39:24;2.25;;;1.10;;
10947;SDS011;5526;42.070;24.752;2023-09-12T02:41:51;2.58;;;1.13;;
10947;SDS011;5526;42.070;24.752;2023-09-12T02:44:18;1.42;;;1.33;;
10947;SDS011;5526;42.070;24.752;2023-09-12T02:46:45;2.40;;;1.17;;
10947;SDS011;5526;42.070;24.752;2023-09-12T02:49:13;2.35;;;1.08;;
10947;SDS011;5526;42.070;24.752;2023-09-12T02:51:41;1.00;;;0.90;;
10947;SDS011;5526;42.070;24.752;2023-09-12T02:54:09;2.55;;;1.20;;
10947;SDS011;5526;42.070;24.752;2023-09-12T02:56:36;2.65;;;1.13;;
10947;SDS011;5526;42.070;24.752;2023-09-12T02:59:03;1.63;;;1.20;;
10947;SDS011;5526;42.070;24.752;2023-09-12T03:01:30;1.52;;;1.30;;
10947;SDS011;5526;42.070;24.752;2023-09-12T03:03:57;1.02;;;1.02;;
10947;SDS011;5526;42.070;24.752;2023-09-12T03:06:24;1.33;;;1.02;;
10947;SDS011;5526;42.070;24.752;2023-09-12T03:08:51;2.85;;;1.10;;
10947;SDS011;5526;42.070;24.752;2023-09-12T03:11:20;1.35;;;0.98;;
10947;SDS011;5526;42.070;24.752;2023-09-12T03:13:47;3.05;;;1.10;;
10947;SDS011;5526;42.070;24.752;2023-09-12T03:16:14;1.20;;;1.10;;
10947;SDS011;5526;42.070;24.752;2023-09-12T03:18:42;2.00;;;1.00;;
10947;SDS011;5526;42.070;24.752;2023-09-12T03:21:09;1.95;;;0.90;;
10947;SDS011;5526;42.070;24.752;2023-09-12T03:23:36;1.05;;;0.82;;
10947;SDS011;5526;42.070;24.752;2023-09-12T03:26:03;1.10;;;1.00;;
10947;SDS011;5526;42.070;24.752;2023-09-12T03:28:32;1.30;;;1.08;;
10947;SDS011;5526;42.070;24.752;2023-09-12T03:31:03;0.90;;;0.90;;
10947;SDS011;5526;42.070;24.752;2023-09-12T03:33:30;1.70;;;0.90;;
10947;SDS011;5526;42.070;24.752;2023-09-12T03:35:58;1.55;;;0.95;;
10947;SDS011;5526;42.070;24.752;2023-09-12T03:38:25;2.45;;;0.88;;
10947;SDS011;5526;42.070;24.752;2023-09-12T03:40:52;0.82;;;0.80;;
10947;SDS011;5526;42.070;24.752;2023-09-12T03:43:19;0.98;;;0.90;;
10947;SDS011;5526;42.070;24.752;2023-09-12T03:45:47;1.00;;;1.00;;
10947;SDS011;5526;42.070;24.752;2023-09-12T03:48:15;1.63;;;1.02;;
10947;SDS011;5526;42.070;24.752;2023-09-12T03:50:42;4.13;;;1.10;;
10947;SDS011;5526;42.070;24.752;2023-09-12T03:53:09;2.33;;;1.30;;
10947;SDS011;5526;42.070;24.752;2023-09-12T03:55:36;2.55;;;1.38;;
10947;SDS011;5526;42.070;24.752;2023-09-12T03:58:03;1.60;;;1.27;;
10947;SDS011;5526;42.070;24.752;2023-09-12T04:00:30;1.35;;;1.25;;
10947;SDS011;5526;42.070;24.752;2023-09-12T04:02:58;4.97;;;1.38;;
10947;SDS011;5526;42.070;24.752;2023-09-12T04:05:26;2.25;;;1.20;;
10947;SDS011;5526;42.070;24.752;2023-09-12T04:07:53;2.78;;;1.30;;
10947;SDS011;5526;42.070;24.752;2023-09-12T04:10:20;3.08;;;1.15;;
10947;SDS011;5526;42.070;24.752;2023-09-12T04:12:47;1.38;;;1.13;;
10947;SDS011;5526;42.070;24.752;2023-09-12T04:15:14;3.85;;;1.50;;
10947;SDS011;5526;42.070;24.752;2023-09-12T04:17:41;1.58;;;1.20;;
10947;SDS011;5526;42.070;24.752;2023-09-12T04:20:10;3.22;;;1.38;;
10947;SDS011;5526;42.070;24.752;2023-09-12T04:22:39;2.88;;;1.23;;
10947;SDS011;5526;42.070;24.752;2023-09-12T04:25:06;2.00;;;1.38;;
10947;SDS011;5526;42.070;24.752;2023-09-12T04:27:33;1.42;;;1.30;;
10947;SDS011;5526;42.070;24.752;2023-09-12T04:30:01;1.63;;;1.20;;
10947;SDS011;5526;42.070;24.752;2023-09-12T04:32:28;2.85;;;1.30;;
10947;SDS011;5526;42.070;24.752;2023-09-12T04:34:55;2.05;;;1.30;;
10947;SDS011;5526;42.070;24.752;2023-09-12T04:37:24;4.03;;;1.30;;
10947;SDS011;5526;42.070;24.752;2023-09-12T04:39:51;1.38;;;1.13;;
10947;SDS011;5526;42.070;24.752;2023-09-12T04:42:18;1.92;;;1.00;;
10947;SDS011;5526;42.070;24.752;2023-09-12T04:44:46;3.88;;;1.50;;
10947;SDS011;5526;42.070;24.752;2023-09-12T04:47:13;2.33;;;1.42;;
10947;SDS011;5526;42.070;24.752;2023-09-12T04:49:40;2.40;;;1.63;;
10947;SDS011;5526;42.070;24.752;2023-09-12T04:52:08;1.98;;;1.50;;
10947;SDS011;5526;42.070;24.752;2023-09-12T04:54:36;2.10;;;1.90;;
10947;SDS011;5526;42.070;24.752;2023-09-12T04:57:04;7.75;;;1.90;;
10947;SDS011;5526;42.070;24.752;2023-09-12T04:59:31;3.92;;;1.42;;
10947;SDS011;5526;42.070;24.752;2023-09-12T05:01:58;3.67;;;1.70;;
10947;SDS011;5526;42.070;24.752;2023-09-12T05:04:25;3.13;;;1.92;;
10947;SDS011;5526;42.070;24.752;2023-09-12T05:06:52;3.30;;;1.80;;
10947;SDS011;5526;42.070;24.752;2023-09-12T05:09:20;5.00;;;1.60;;
10947;SDS011;5526;42.070;24.752;2023-09-12T05:11:48;4.70;;;2.25;;
10947;SDS011;5526;42.070;24.752;2023-09-12T05:14:15;5.00;;;2.55;;
10947;SDS011;5526;42.070;24.752;2023-09-12T05:16:42;6.22;;;1.88;;
10947;SDS011;5526;42.070;24.752;2023-09-12T05:19:09;4.05;;;2.00;;
10947;SDS011;5526;42.070;24.752;2023-09-12T05:21:36;4.45;;;2.00;;
10947;SDS011;5526;42.070;24.752;2023-09-12T05:24:04;3.85;;;1.70;;
10947;SDS011;5526;42.070;24.752;2023-09-12T05:26:31;3.13;;;1.50;;
10947;SDS011;5526;42.070;24.752;2023-09-12T05:29:00;3.03;;;1.60;;
10947;SDS011;5526;42.070;24.752;2023-09-12T05:31:27;2.70;;;1.50;;
10947;SDS011;5526;42.070;24.752;2023-09-12T05:33:54;2.58;;;1.30;;
10947;SDS011;5526;42.070;24.752;2023-09-12T05:36:21;3.35;;;1.48;;
10947;SDS011;5526;42.070;24.752;2023-09-12T05:38:48;2.85;;;1.17;;
10947;SDS011;5526;42.070;24.752;2023-09-12T05:41:15;2.45;;;1.55;;
10947;SDS011;5526;42.070;24.752;2023-09-12T05:43:43;3.05;;;1.63;;
10947;SDS011;5526;42.070;24.752;2023-09-12T05:46:11;1.48;;;1.38;;
10947;SDS011;5526;42.070;24.752;2023-09-12T05:48:38;2.83;;;1.13;;
10947;SDS011;5526;42.070;24.752;2023-09-12T05:51:05;4.32;;;1.38;;
10947;SDS011;5526;42.070;24.752;2023-09-12T05:53:32;2.72;;;1.20;;
10947;SDS011;5526;42.070;24.752;2023-09-12T05:55:59;4.38;;;1.50;;
10947;SDS011;5526;42.070;24.752;2023-09-12T05:58:27;3.65;;;1.40;;
10947;SDS011;5526;42.070;24.752;2023-09-12T06:00:55;2.58;;;1.40;;
10947;SDS011;5526;42.070;24.752;2023-09-12T06:03:23;3.20;;;1.23;;
10947;SDS011;5526;42.070;24.752;2023-09-12T06:05:50;2.03;;;1.30;;
10947;SDS011;5526;42.070;24.752;2023-09-12T06:08:17;2.67;;;1.40;;
10947;SDS011;5526;42.070;24.752;2023-09-12T06:10:44;2.13;;;1.20;;
10947;SDS011;5526;42.070;24.752;2023-09-12T06:13:14;3.67;;;1.08;;
10947;SDS011;5526;42.070;24.752;2023-09-12T06:15:41;2.05;;;1.38;;
10947;SDS011;5526;42.070;24.752;2023-09-12T06:18:08;2.05;;;1.42;;
10947;SDS011;5526;42.070;24.752;2023-09-12T06:20:36;1.73;;;1.63;;
10947;SDS011;5526;42.070;24.752;2023-09-12T06:23:03;2.65;;;1.50;;
10947;SDS011;5526;42.070;24.752;2023-09-12T06:25:30;3.70;;;1.40;;
10947;SDS011;5526;42.070;24.752;2023-09-12T06:27:58;3.55;;;1.60;;
10947;SDS011;5526;42.070;24.752;2023-09-12T06:30:25;2.55;;;1.77;;
10947;SDS011;5526;42.070;24.752;2023-09-12T06:32:52;2.63;;;1.55;;
10947;SDS011;5526;42.070;24.752;2023-09-12T06:35:19;4.70;;;2.22;;
10947;SDS011;5526;42.070;24.752;2023-09-12T06:37:47;3.20;;;2.13;;
10947;SDS011;5526;42.070;24.752;2023-09-12T06:40:14;3.47;;;1.70;;
10947;SDS011;5526;42.070;24.752;2023-09-12T06:42:42;2.50;;;2.10;;
10947;SDS011;5526;42.070;24.752;2023-09-12T06:45:10;3.50;;;2.05;;
10947;SDS011;5526;42.070;24.752;2023-09-12T06:47:37;3.50;;;2.10;;
10947;SDS011;5526;42.070;24.752;2023-09-12T06:50:04;2.58;;;1.90;;
10947;SDS011;5526;42.070;24.752;2023-09-12T06:52:32;4.53;;;1.88;;
10947;SDS011;5526;42.070;24.752;2023-09-12T06:55:01;4.55;;;2.03;;
10947;SDS011;5526;42.070;24.752;2023-09-12T06:57:28;4.05;;;1.90;;
10947;SDS011;5526;42.070;24.752;2023-09-12T06:59:55;3.92;;;1.80;;
10947;SDS011;5526;42.070;24.752;2023-09-12T07:02:23;3.45;;;2.13;;
10947;SDS011;5526;42.070;24.752;2023-09-12T07:04:50;2.90;;;2.08;;
10947;SDS011;5526;42.070;24.752;2023-09-12T07:07:17;5.20;;;2.00;;
10947;SDS011;5526;42.070;24.752;2023-09-12T07:09:46;2.33;;;1.67;;
10947;SDS011;5526;42.070;24.752;2023-09-12T07:12:14;3.08;;;1.98;;
10947;SDS011;5526;42.070;24.752;2023-09-12T07:14:41;4.97;;;2.33;;
10947;SDS011;5526;42.070;24.752;2023-09-12T07:17:09;3.15;;;2.00;;
10947;SDS011;5526;42.070;24.752;2023-09-12T07:19:36;3.40;;;2.10;;
10947;SDS011;5526;42.070;24.752;2023-09-12T07:22:03;2.55;;;2.28;;
10947;SDS011;5526;42.070;24.752;2023-09-12T07:24:31;2.30;;;2.10;;
10947;SDS011;5526;42.070;24.752;2023-09-12T07:26:58;3.97;;;2.58;;
10947;SDS011;5526;42.070;24.752;2023-09-12T07:29:27;3.97;;;2.10;;
10947;SDS011;5526;42.070;24.752;2023-09-12T07:31:54;4.00;;;2.25;;
10947;SDS011;5526;42.070;24.752;2023-09-12T07:34:21;2.42;;;1.83;;
10947;SDS011;5526;42.070;24.752;2023-09-12T07:36:48;3.38;;;2.10;;
10947;SDS011;5526;42.070;24.752;2023-09-12T07:39:16;2.22;;;2.00;;
10947;SDS011;5526;42.070;24.752;2023-09-12T07:41:43;3.45;;;1.92;;
10947;SDS011;5526;42.070;24.752;2023-09-12T07:44:10;1.95;;;1.75;;
10947;SDS011;5526;42.070;24.752;2023-09-12T07:46:42;3.72;;;1.73;;
10947;SDS011;5526;42.070;24.752;2023-09-12T07:49:09;2.95;;;1.70;;
10947;SDS011;5526;42.070;24.752;2023-09-12T07:51:36;3.05;;;1.80;;
10947;SDS011;5526;42.070;24.752;2023-09-12T07:54:04;3.10;;;2.10;;
10947;SDS011;5526;42.070;24.752;2023-09-12T07:56:31;2.42;;;1.60;;
10947;SDS011;5526;42.070;24.752;2023-09-12T07:58:58;2.45;;;2.00;;
10947;SDS011;5526;42.070;24.752;2023-09-12T08:01:25;3.10;;;1.88;;
10947;SDS011;5526;42.070;24.752;2023-09-12T08:03:55;2.90;;;1.67;;
10947;SDS011;5526;42.070;24.752;2023-09-12T08:06:22;3.45;;;1.45;;
10947;SDS011;5526;42.070;24.752;2023-09-12T08:08:50;9.93;;;2.10;;
10947;SDS011;5526;42.070;24.752;2023-09-12T08:11:17;6.50;;;1.73;;
10947;SDS011;5526;42.070;24.752;2023-09-12T08:13:48;2.65;;;2.03;;
10947;SDS011;5526;42.070;24.752;2023-09-12T08:16:16;5.00;;;1.92;;
10947;SDS011;5526;42.070;24.752;2023-09-12T08:18:43;5.28;;;1.70;;
10947;SDS011;5526;42.070;24.752;2023-09-12T08:21:11;2.45;;;1.70;;
10947;SDS011;5526;42.070;24.752;2023-09-12T08:23:38;2.42;;;1.90;;
10947;SDS011;5526;42.070;24.752;2023-09-12T08:26:06;2.72;;;1.80;;
10947;SDS011;5526;42.070;24.752;2023-09-12T08:28:34;3.38;;;2.00;;
10947;SDS011;5526;42.070;24.752;2023-09-12T08:31:01;3.42;;;2.10;;
10947;SDS011;5526;42.070;24.752;2023-09-12T08:33:28;2.67;;;1.63;;
10947;SDS011;5526;42.070;24.752;2023-09-12T08:35:55;2.20;;;1.58;;
10947;SDS011;5526;42.070;24.752;2023-09-12T08:38:24;3.58;;;2.00;;
10947;SDS011;5526;42.070;24.752;2023-09-12T08:40:51;3.03;;;1.70;;
10947;SDS011;5526;42.070;24.752;2023-09-12T08:43:18;2.45;;;1.77;;
10947;SDS011;5526;42.070;24.752;2023-09-12T08:45:46;1.88;;;1.75;;
10947;SDS011;5526;42.070;24.752;2023-09-12T08:48:14;2.70;;;1.85;;
10947;SDS011;5526;42.070;24.752;2023-09-12T08:50:42;4.28;;;1.83;;
10947;SDS011;5526;42.070;24.752;2023-09-12T08:53:13;2.67;;;2.30;;
10947;SDS011;5526;42.070;24.752;2023-09-12T08:55:42;1.85;;;1.75;;
10947;SDS011;5526;42.070;24.752;2023-09-12T08:58:09;2.63;;;1.90;;
10947;SDS011;5526;42.070;24.752;2023-09-12T09:00:36;1.90;;;1.70;;
10947;SDS011;5526;42.070;24.752;2023-09-12T09:03:04;2.13;;;1.98;;
10947;SDS011;5526;42.070;24.752;2023-09-12T09:05:32;4.95;;;2.05;;
10947;SDS011;5526;42.070;24.752;2023-09-12T09:08:01;2.95;;;2.00;;
10947;SDS011;5526;42.070;24.752;2023-09-12T09:10:29;3.58;;;1.90;;
10947;SDS011;5526;42.070;24.752;2023-09-12T09:12:59;2.78;;;1.85;;
10947;SDS011;5526;42.070;24.752;2023-09-12T09:15:26;4.78;;;2.25;;
10947;SDS011;5526;42.070;24.752;2023-09-12T09:17:55;2.40;;;2.20;;
10947;SDS011;5526;42.070;24.752;2023-09-12T09:20:26;4.60;;;2.38;;
10947;SDS011;5526;42.070;24.752;2023-09-12T09:23:00;2.33;;;1.95;;
10947;SDS011;5526;42.070;24.752;2023-09-12T09:25:30;2.10;;;1.90;;
10947;SDS011;5526;42.070;24.752;2023-09-12T09:28:00;3.28;;;2.30;;
10947;SDS011;5526;42.070;24.752;2023-09-12T09:30:39;1.70;;;1.60;;
10947;SDS011;5526;42.070;24.752;2023-09-12T09:33:07;3.60;;;1.77;;
10947;SDS011;5526;42.070;24.752;2023-09-12T09:35:35;3.20;;;1.80;;
10947;SDS011;5526;42.070;24.752;2023-09-12T09:38:05;1.98;;;1.80;;
10947;SDS011;5526;42.070;24.752;2023-09-12T09:40:33;3.83;;;2.03;;
10947;SDS011;5526;42.070;24.752;2023-09-12T09:43:03;2.50;;;2.20;;
10947;SDS011;5526;42.070;24.752;2023-09-12T09:45:30;2.53;;;2.10;;
10947;SDS011;5526;42.070;24.752;2023-09-12T09:47:58;3.10;;;2.20;;
10947;SDS011;5526;42.070;24.752;2023-09-12T09:50:33;2.97;;;2.20;;
10947;SDS011;5526;42.070;24.752;2023-09-12T09:53:02;2.30;;;2.10;;
10947;SDS011;5526;42.070;24.752;2023-09-12T09:55:32;2.33;;;2.22;;
10947;SDS011;5526;42.070;24.752;2023-09-12T09:57:59;2.03;;;1.80;;
10947;SDS011;5526;42.070;24.752;2023-09-12T10:00:28;4.95;;;1.58;;
10947;SDS011;5526;42.070;24.752;2023-09-12T10:02:56;3.08;;;2.00;;
10947;SDS011;5526;42.070;24.752;2023-09-12T10:05:24;4.70;;;2.20;;
10947;SDS011;5526;42.070;24.752;2023-09-12T10:07:53;2.33;;;1.85;;
10947;SDS011;5526;42.070;24.752;2023-09-12T10:10:22;2.28;;;1.60;;
10947;SDS011;5526;42.070;24.752;2023-09-12T10:12:51;2.33;;;1.90;;
10947;SDS011;5526;42.070;24.752;2023-09-12T10:15:24;1.60;;;1.48;;
10947;SDS011;5526;42.070;24.752;2023-09-12T10:17:57;3.45;;;1.98;;
10947;SDS011;5526;42.070;24.752;2023-09-12T10:20:26;1.67;;;1.50;;
10947;SDS011;5526;42.070;24.752;2023-09-12T10:23:02;2.17;;;1.73;;
10947;SDS011;5526;42.070;24.752;2023-09-12T10:25:36;4.90;;;2.17;;
10947;SDS011;5526;42.070;24.752;2023-09-12T10:28:04;2.47;;;1.80;;
10947;SDS011;5526;42.070;24.752;2023-09-12T10:30:33;12.90;;;2.80;;
10947;SDS011;5526;42.070;24.752;2023-09-12T10:33:02;3.03;;;1.98;;
10947;SDS011;5526;42.070;24.752;2023-09-12T10:35:31;2.65;;;2.10;;
10947;SDS011;5526;42.070;24.752;2023-09-12T10:38:00;2.70;;;1.83;;
10947;SDS011;5526;42.070;24.752;2023-09-12T10:40:31;4.38;;;2.13;;
10947;SDS011;5526;42.070;24.752;2023-09-12T10:43:01;4.28;;;2.40;;
10947;SDS011;5526;42.070;24.752;2023-09-12T10:45:31;4.28;;;2.60;;
10947;SDS011;5526;42.070;24.752;2023-09-12T10:48:00;3.22;;;2.10;;
10947;SDS011;5526;42.070;24.752;2023-09-12T10:50:28;4.10;;;2.20;;
10947;SDS011;5526;42.070;24.752;2023-09-12T10:52:56;3.83;;;2.60;;
10947;SDS011;5526;42.070;24.752;2023-09-12T10:55:34;3.70;;;2.30;;
10947;SDS011;5526;42.070;24.752;2023-09-12T10:58:02;3.33;;;2.10;;
10947;SDS011;5526;42.070;24.752;2023-09-12T11:00:30;3.20;;;2.42;;
10947;SDS011;5526;42.070;24.752;2023-09-12T11:02:58;3.05;;;2.28;;
10947;SDS011;5526;42.070;24.752;2023-09-12T11:05:37;7.18;;;3.03;;
10947;SDS011;5526;42.070;24.752;2023-09-12T11:08:18;4.57;;;2.65;;
10947;SDS011;5526;42.070;24.752;2023-09-12T11:10:45;2.75;;;2.55;;
10947;SDS011;5526;42.070;24.752;2023-09-12T11:13:45;5.82;;;2.80;;
10947;SDS011;5526;42.070;24.752;2023-09-12T11:16:13;3.83;;;3.17;;
10947;SDS011;5526;42.070;24.752;2023-09-12T11:21:42;3.53;;;3.03;;
10947;SDS011;5526;42.070;24.752;2023-09-12T11:24:10;5.38;;;2.95;;
10947;SDS011;5526;42.070;24.752;2023-09-12T11:29:27;6.00;;;3.05;;
10947;SDS011;5526;42.070;24.752;2023-09-12T11:31:56;3.83;;;2.88;;
10947;SDS011;5526;42.070;24.752;2023-09-12T11:34:25;6.80;;;3.10;;
10947;SDS011;5526;42.070;24.752;2023-09-12T11:36:58;4.57;;;2.95;;
10947;SDS011;5526;42.070;24.752;2023-09-12T11:39:29;5.13;;;3.13;;
10947;SDS011;5526;42.070;24.752;2023-09-12T11:41:57;4.07;;;2.92;;
10947;SDS011;5526;42.070;24.752;2023-09-12T11:44:26;3.30;;;3.00;;
10947;SDS011;5526;42.070;24.752;2023-09-12T11:46:53;6.93;;;3.20;;
10947;SDS011;5526;42.070;24.752;2023-09-12T11:49:23;7.28;;;3.33;;
10947;SDS011;5526;42.070;24.752;2023-09-12T11:51:51;5.00;;;3.00;;
10947;SDS011;5526;42.070;24.752;2023-09-12T11:54:24;7.50;;;3.42;;
10947;SDS011;5526;42.070;24.752;2023-09-12T11:56:52;5.70;;;3.30;;
10947;SDS011;5526;42.070;24.752;2023-09-12T11:59:22;5.97;;;3.38;;
10947;SDS011;5526;42.070;24.752;2023-09-12T12:01:49;3.88;;;3.13;;
10947;SDS011;5526;42.070;24.752;2023-09-12T12:04:17;4.05;;;3.28;;
10947;SDS011;5526;42.070;24.752;2023-09-12T12:06:46;4.70;;;2.95;;
10947;SDS011;5526;42.070;24.752;2023-09-12T12:09:14;5.75;;;3.45;;
10947;SDS011;5526;42.070;24.752;2023-09-12T12:11:45;3.47;;;3.17;;
10947;SDS011;5526;42.070;24.752;2023-09-12T12:14:12;3.17;;;2.85;;
10947;SDS011;5526;42.070;24.752;2023-09-12T12:16:41;4.90;;;3.28;;
10947;SDS011;5526;42.070;24.752;2023-09-12T12:19:08;4.65;;;3.20;;
10947;SDS011;5526;42.070;24.752;2023-09-12T12:21:36;6.15;;;3.10;;
10947;SDS011;5526;42.070;24.752;2023-09-12T12:24:04;3.45;;;3.22;;
10947;SDS011;5526;42.070;24.752;2023-09-12T12:26:34;4.47;;;3.38;;
10947;SDS011;5526;42.070;24.752;2023-09-12T12:29:04;3.78;;;3.30;;
10947;SDS011;5526;42.070;24.752;2023-09-12T12:31:31;8.57;;;3.35;;
10947;SDS011;5526;42.070;24.752;2023-09-12T12:33:58;5.22;;;3.25;;
10947;SDS011;5526;42.070;24.752;2023-09-12T12:36:25;4.38;;;3.00;;
10947;SDS011;5526;42.070;24.752;2023-09-12T12:38:53;4.22;;;3.00;;
10947;SDS011;5526;42.070;24.752;2023-09-12T12:41:23;4.47;;;2.97;;
10947;SDS011;5526;42.070;24.752;2023-09-12T12:43:51;3.47;;;2.95;;
10947;SDS011;5526;42.070;24.752;2023-09-12T12:46:21;5.97;;;3.25;;
10947;SDS011;5526;42.070;24.752;2023-09-12T12:48:48;6.43;;;3.00;;
10947;SDS011;5526;42.070;24.752;2023-09-12T12:51:16;3.40;;;2.95;;
10947;SDS011;5526;42.070;24.752;2023-09-12T12:53:45;5.60;;;3.25;;
10947;SDS011;5526;42.070;24.752;2023-09-12T12:56:16;3.75;;;3.10;;
10947;SDS011;5526;42.070;24.752;2023-09-12T12:58:45;3.47;;;3.17;;
10947;SDS011;5526;42.070;24.752;2023-09-12T13:01:14;7.80;;;2.88;;
10947;SDS011;5526;42.070;24.752;2023-09-12T13:03:43;3.08;;;2.78;;
10947;SDS011;5526;42.070;24.752;2023-09-12T13:06:10;3.90;;;2.92;;
10947;SDS011;5526;42.070;24.752;2023-09-12T13:08:40;3.38;;;2.90;;
10947;SDS011;5526;42.070;24.752;2023-09-12T13:11:08;3.65;;;3.10;;
10947;SDS011;5526;42.070;24.752;2023-09-12T13:13:36;4.65;;;2.60;;
10947;SDS011;5526;42.070;24.752;2023-09-12T13:16:04;3.88;;;3.00;;
10947;SDS011;5526;42.070;24.752;2023-09-12T13:18:32;3.03;;;2.80;;
10947;SDS011;5526;42.070;24.752;2023-09-12T13:21:01;3.47;;;2.80;;
10947;SDS011;5526;42.070;24.752;2023-09-12T13:23:28;4.32;;;2.95;;
10947;SDS011;5526;42.070;24.752;2023-09-12T13:25:56;4.95;;;2.85;;
10947;SDS011;5526;42.070;24.752;2023-09-12T13:28:23;3.80;;;2.58;;
10947;SDS011;5526;42.070;24.752;2023-09-12T13:30:51;4.63;;;2.88;;
10947;SDS011;5526;42.070;24.752;2023-09-12T13:33:18;3.05;;;2.72;;
10947;SDS011;5526;42.070;24.752;2023-09-12T13:35:46;4.20;;;2.95;;
10947;SDS011;5526;42.070;24.752;2023-09-12T13:38:14;3.78;;;3.00;;
10947;SDS011;5526;42.070;24.752;2023-09-12T13:40:43;3.47;;;2.90;;
10947;SDS011;5526;42.070;24.752;2023-09-12T13:43:12;3.50;;;2.90;;
10947;SDS011;5526;42.070;24.752;2023-09-12T13:45:39;3.92;;;3.10;;
10947;SDS011;5526;42.070;24.752;2023-09-12T13:48:07;3.90;;;2.63;;
10947;SDS011;5526;42.070;24.752;2023-09-12T13:50:34;3.10;;;2.80;;
10947;SDS011;5526;42.070;24.752;2023-09-12T13:53:02;3.42;;;2.55;;
10947;SDS011;5526;42.070;24.752;2023-09-12T13:55:33;4.50;;;3.25;;
10947;SDS011;5526;42.070;24.752;2023-09-12T13:58:01;3.90;;;2.80;;
10947;SDS011;5526;42.070;24.752;2023-09-12T14:00:29;3.90;;;2.97;;
10947;SDS011;5526;42.070;24.752;2023-09-12T14:02:56;5.55;;;3.10;;
10947;SDS011;5526;42.070;24.752;2023-09-12T14:05:23;3.47;;;2.88;;
10947;SDS011;5526;42.070;24.752;2023-09-12T14:07:51;5.63;;;3.00;;
10947;SDS011;5526;42.070;24.752;2023-09-12T14:10:18;3.00;;;2.72;;
10947;SDS011;5526;42.070;24.752;2023-09-12T14:12:46;4.10;;;2.95;;
10947;SDS011;5526;42.070;24.752;2023-09-12T14:15:14;3.40;;;3.10;;
10947;SDS011;5526;42.070;24.752;2023-09-12T14:17:41;3.25;;;2.95;;
10947;SDS011;5526;42.070;24.752;2023-09-12T14:20:08;6.57;;;3.10;;
10947;SDS011;5526;42.070;24.752;2023-09-12T14:22:40;3.95;;;2.80;;
10947;SDS011;5526;42.070;24.752;2023-09-12T14:25:08;5.78;;;3.00;;
10947;SDS011;5526;42.070;24.752;2023-09-12T14:27:40;9.73;;;3.30;;
10947;SDS011;5526;42.070;24.752;2023-09-12T14:30:10;7.10;;;3.15;;
10947;SDS011;5526;42.070;24.752;2023-09-12T14:32:38;3.08;;;2.67;;
10947;SDS011;5526;42.070;24.752;2023-09-12T14:35:05;3.38;;;3.05;;
10947;SDS011;5526;42.070;24.752;2023-09-12T14:37:33;6.50;;;3.00;;
10947;SDS011;5526;42.070;24.752;2023-09-12T14:40:02;5.18;;;3.35;;
10947;SDS011;5526;42.070;24.752;2023-09-12T14:42:31;3.47;;;2.67;;
10947;SDS011;5526;42.070;24.752;2023-09-12T14:44:58;4.35;;;3.03;;
10947;SDS011;5526;42.070;24.752;2023-09-12T14:47:27;5.60;;;3.42;;
10947;SDS011;5526;42.070;24.752;2023-09-12T14:49:55;6.15;;;3.38;;
10947;SDS011;5526;42.070;24.752;2023-09-12T14:52:23;4.38;;;3.45;;
10947;SDS011;5526;42.070;24.752;2023-09-12T14:54:52;5.22;;;3.35;;
10947;SDS011;5526;42.070;24.752;2023-09-12T14:57:19;3.22;;;2.92;;
10947;SDS011;5526;42.070;24.752;2023-09-12T14:59:49;4.25;;;2.95;;